aviador You're here:

LEVC Decoded Metar

VALENCIA in SPAIN
Report Time2015-05-25 17:00:00
UTC Time2015-05-25 17:08:46
Flight Rules vfr VFR
Wind130° at 07 kt
W.Decomp.*RWY 12: 6.9 kt HW 1.3 kt RCW
W.Rank130° ranks 12
Current wind is below 130° avg. (7.5)
Visibility9999 m
Phenomena:N/A
Clouds:Few 030 Hf
Expected CloudBase > 6,800 ft AGL from Temp-Dew spread
CeilingNone
Temp24°C (ISA +9)
Dew Point07°C (34% RH)
AAT20.8°C
QNH1015 hPa
Density Alt1,365 ft
Elevation203 ft
Report Wrong Elevation
Raw Report
METAR LEVC 251700Z 13007KT 9999 FEW030 24/07 Q1015 NOSIG=

Extra information for LEVC:More info

Metar Taf Metar & Taf Last 4 Metars F.Rules Stats Wind Profile Meteogram Temp Stats Airport Information Weather charts Add Link Nearby VenuesMetar ALERT Operation Metar Decoded Social comments

Webcam Valencia